Time;durP1;ratioP1;P1;durP2;ratioP2;P2;SDS_P1;SDS_P2;PMS_P1;PMS_P2;Temp;Humidity;BMP_temperature;BMP_pressure;BME280_temperature;BME280_humidity;BME280_pressure;Samples;Min_cycle;Max_cycle;Signal;HPM_P1;HPM_P2
2023/09/22 00:01:29;;;;;;;;;;;;;;;;;;6153420;23;19904;-90
2023/09/22 00:03:56;;;;;;;;;;;;;;;;;;6154629;23;19974;-89
2023/09/22 00:06:22;;;;;;;;;;;;;;;;;;6152997;23;20519;-89
2023/09/22 00:08:47;;;;;;;;;;;;;;;;;;6153914;23;19904;-89
2023/09/22 00:11:13;;;;;;;;;;;;;;;;;;6152729;23;19905;-89
2023/09/22 00:13:39;;;;;;;;;;;;;;;;;;6153709;23;19904;-89
2023/09/22 00:16:06;;;;;;;;;;;;;;;;;;6152632;23;20246;-89
2023/09/22 00:18:32;;;;;;;;;;;;;;;;;;6154059;23;19908;-89
2023/09/22 00:20:58;;;;;;;;;;;;;;;;;;6152143;23;19908;-90
2023/09/22 00:23:24;;;;;;;;;;;;;;;;;;6153128;23;19975;-89
2023/09/22 00:25:50;;;;;;;;;;;;;;;;;;6152332;23;19908;-89
2023/09/22 00:28:15;;;;;;;;;;;;;;;;;;6154599;23;19908;-89
2023/09/22 00:30:48;;;;;;;;;;;;;;;;;;6153468;23;20445;-89
2023/09/22 00:33:14;;;;;;;;;;;;;;;;;;6152420;23;20014;-89
2023/09/22 00:35:39;;;;;;;;;;;;;;;;;;6153371;23;20381;-89
2023/09/22 00:38:06;;;;;;;;;;;;;;;;;;6154205;23;19912;-90
2023/09/22 00:40:32;;;;;;;;;;;;;;;;;;6155344;23;19956;-91
2023/09/22 00:42:58;;;;;;;;;;;;;;;;;;6154542;23;20275;-91
2023/09/22 00:45:24;;;;;;;;;;;;;;;;;;6152985;23;19958;-91
2023/09/22 00:47:50;;;;;;;;;;;;;;;;;;6184386;23;19908;-91
2023/09/22 00:50:16;;;;;;;;;;;;;;;;;;6182891;23;19908;-91
2023/09/22 00:52:45;;;;;;;;;;;;;;;;;;6157676;23;19946;-91
2023/09/22 00:55:11;;;;;;;;;;;;;;;;;;6156279;23;19990;-91
2023/09/22 00:57:37;;;;;;;;;;;;;;;;;;6157800;23;19910;-91
2023/09/22 01:00:03;;;;;;;;;;;;;;;;;;6155750;23;19908;-91
2023/09/22 01:02:30;;;;;;;;;;;;;;;;;;6156639;23;19916;-91
2023/09/22 01:04:55;;;;;;;;;;;;;;;;;;6156358;23;19904;-90
2023/09/22 01:07:21;;;;;;;;;;;;;;;;;;6157144;23;19927;-91
2023/09/22 01:09:48;;;;;;;;;;;;;;;;;;6156691;23;20353;-90
2023/09/22 01:12:14;;;;;;;;;;;;;;;;;;6158297;23;19905;-91
2023/09/22 01:14:40;;;;;;;;;;;;;;;;;;6154655;23;19947;-91
2023/09/22 01:17:06;;;;;;;;;;;;;;;;;;6156163;23;19908;-92
2023/09/22 01:19:32;;;;;;;;;;;;;;;;;;6157335;23;19904;-91
2023/09/22 01:21:58;;;;;;;;;;;;;;;;;;6183066;23;19983;-90
2023/09/22 01:24:24;;;;;;;;;;;;;;;;;;6157846;23;20235;-91
2023/09/22 01:26:50;;;;;;;;;;;;;;;;;;6183835;23;19911;-91
2023/09/22 01:29:16;;;;;;;;;;;;;;;;;;6157278;23;20290;-91
2023/09/22 01:31:42;;;;;;;;;;;;;;;;;;6159606;23;19919;-89
2023/09/22 01:34:08;;;;;;;;;;;;;;;;;;6156587;23;19908;-90
2023/09/22 01:36:34;;;;;;;;;;;;;;;;;;6156307;23;19978;-90
2023/09/22 01:39:01;;;;;;;;;;;;;;;;;;6184529;23;19912;-91
2023/09/22 01:41:35;;;;;;;;;;;;;;;;;;6155449;23;19908;-91
2023/09/22 01:44:01;;;;;;;;;;;;;;;;;;6157006;23;19919;-91
2023/09/22 01:46:27;;;;;;;;;;;;;;;;;;6157563;23;19904;-91
2023/09/22 01:48:53;;;;;;;;;;;;;;;;;;6155765;23;20519;-90
2023/09/22 01:51:19;;;;;;;;;;;;;;;;;;6155527;23;19905;-90
2023/09/22 01:53:45;;;;;;;;;;;;;;;;;;6156331;23;20008;-89
2023/09/22 01:56:11;;;;;;;;;;;;;;;;;;6155629;23;19904;-88
2023/09/22 01:58:37;;;;;;;;;;;;;;;;;;6155163;23;19913;-88
2023/09/22 02:01:03;;;;;;;;;;;;;;;;;;6153734;23;19979;-89
2023/09/22 02:03:29;;;;;;;;;;;;;;;;;;6181548;23;19912;-88
2023/09/22 02:05:57;;;;;;;;;;;;;;;;;;6154332;23;19987;-88
2023/09/22 02:08:23;;;;;;;;;;;;;;;;;;6154363;23;19974;-90
2023/09/22 02:10:49;;;;;;;;;;;;;;;;;;6154547;23;19908;-88
2023/09/22 02:13:15;;;;;;;;;;;;;;;;;;6153757;23;19959;-89
2023/09/22 02:15:41;;;;;;;;;;;;;;;;;;6153841;23;19904;-88
2023/09/22 02:18:07;;;;;;;;;;;;;;;;;;6155573;23;19908;-87
2023/09/22 02:20:33;;;;;;;;;;;;;;;;;;6154465;23;19959;-89
2023/09/22 02:22:59;;;;;;;;;;;;;;;;;;6154797;23;19909;-88
2023/09/22 02:25:25;;;;;;;;;;;;;;;;;;6154089;23;19932;-89
2023/09/22 02:27:54;;;;;;;;;;;;;;;;;;6154123;23;19904;-88
2023/09/22 02:30:20;;;;;;;;;;;;;;;;;;6156221;22;19920;-88
2023/09/22 02:32:52;;;;;;;;;;;;;;;;;;6153510;23;20209;-89
2023/09/22 02:35:18;;;;;;;;;;;;;;;;;;6153983;23;19908;-90
2023/09/22 02:37:43;;;;;;;;;;;;;;;;;;6155174;23;19908;-90
2023/09/22 02:40:09;;;;;;;;;;;;;;;;;;6154767;23;19912;-89
2023/09/22 02:42:36;;;;;;;;;;;;;;;;;;6153859;23;19912;-88
2023/09/22 02:45:02;;;;;;;;;;;;;;;;;;6154585;23;20107;-89
2023/09/22 02:47:29;;;;;;;;;;;;;;;;;;6152838;23;19963;-88
2023/09/22 02:49:54;;;;;;;;;;;;;;;;;;6154344;23;20345;-90
2023/09/22 02:52:20;;;;;;;;;;;;;;;;;;6154552;23;19908;-89
2023/09/22 02:54:46;;;;;;;;;;;;;;;;;;6153349;23;19936;-88
2023/09/22 02:57:12;;;;;;;;;;;;;;;;;;6155048;23;19908;-89
2023/09/22 02:59:38;;;;;;;;;;;;;;;;;;6152547;23;19915;-88
2023/09/22 03:02:04;;;;;;;;;;;;;;;;;;6154404;23;20290;-88
2023/09/22 03:04:31;;;;;;;;;;;;;;;;;;6153120;23;19908;-88
2023/09/22 03:06:57;;;;;;;;;;;;;;;;;;6153802;23;20370;-89
2023/09/22 03:09:23;;;;;;;;;;;;;;;;;;6153157;23;19915;-90
2023/09/22 03:11:49;;;;;;;;;;;;;;;;;;6154876;23;19935;-89
2023/09/22 03:14:15;;;;;;;;;;;;;;;;;;6151875;23;20665;-90
2023/09/22 03:16:41;;;;;;;;;;;;;;;;;;6152337;23;19915;-90
2023/09/22 03:19:13;;;;;;;;;;;;;;;;;;6156124;23;19905;-92
2023/09/22 03:21:39;;;;;;;;;;;;;;;;;;6154598;23;19909;-92
2023/09/22 03:24:05;;;;;;;;;;;;;;;;;;6153822;23;20344;-92
2023/09/22 03:26:31;;;;;;;;;;;;;;;;;;6154839;23;19984;-93
2023/09/22 03:28:57;;;;;;;;;;;;;;;;;;6155184;23;19928;-91
2023/09/22 03:31:23;;;;;;;;;;;;;;;;;;6157262;23;19916;-91
2023/09/22 03:33:49;;;;;;;;;;;;;;;;;;6155355;23;20015;-90
2023/09/22 03:36:15;;;;;;;;;;;;;;;;;;6154303;23;19909;-91
2023/09/22 03:38:41;;;;;;;;;;;;;;;;;;6155284;23;19913;-91
2023/09/22 03:41:07;;;;;;;;;;;;;;;;;;6155593;23;20381;-91
2023/09/22 03:43:33;;;;;;;;;;;;;;;;;;6156327;23;20732;-91
2023/09/22 03:45:59;;;;;;;;;;;;;;;;;;6154824;23;19908;-91
2023/09/22 03:48:25;;;;;;;;;;;;;;;;;;6180015;23;19983;-91
2023/09/22 03:50:51;;;;;;;;;;;;;;;;;;6153801;23;19958;-91
2023/09/22 03:53:17;;;;;;;;;;;;;;;;;;6153079;23;19987;-91
2023/09/22 03:55:44;;;;;;;;;;;;;;;;;;6153455;23;19939;-91
2023/09/22 03:58:17;;;;;;;;;;;;;;;;;;6151377;23;20349;-90
2023/09/22 04:00:43;;;;;;;;;;;;;;;;;;6153158;23;19936;-90
2023/09/22 04:03:09;;;;;;;;;;;;;;;;;;6153773;23;19915;-91
2023/09/22 04:05:35;;;;;;;;;;;;;;;;;;6153082;23;19908;-90
2023/09/22 04:08:01;;;;;;;;;;;;;;;;;;6153133;23;20374;-90
2023/09/22 04:10:27;;;;;;;;;;;;;;;;;;6153387;23;19912;-90
2023/09/22 04:12:53;;;;;;;;;;;;;;;;;;6152963;23;19982;-91
2023/09/22 04:15:19;;;;;;;;;;;;;;;;;;6153686;23;19919;-91
2023/09/22 04:17:46;;;;;;;;;;;;;;;;;;6153115;23;19911;-91
2023/09/22 04:20:12;;;;;;;;;;;;;;;;;;6179245;23;19943;-90
2023/09/22 04:22:38;;;;;;;;;;;;;;;;;;6152724;23;19996;-90
2023/09/22 04:25:11;;;;;;;;;;;;;;;;;;6178362;23;19939;-90
2023/09/22 04:27:43;;;;;;;;;;;;;;;;;;6179862;23;20302;-92
2023/09/22 04:30:11;;;;;;;;;;;;;;;;;;6153783;23;19958;-91
2023/09/22 04:32:37;;;;;;;;;;;;;;;;;;6157915;23;19923;-91
2023/09/22 04:35:06;;;;;;;;;;;;;;;;;;6154855;23;19912;-91
2023/09/22 04:37:53;;;;;;;;;;;;;;;;;;6155548;23;19905;-91
2023/09/22 04:40:24;;;;;;;;;;;;;;;;;;6180802;23;19908;-91
2023/09/22 04:42:50;;;;;;;;;;;;;;;;;;6155236;23;19916;-90
2023/09/22 04:45:17;;;;;;;;;;;;;;;;;;6154119;23;20015;-90
2023/09/22 04:47:43;;;;;;;;;;;;;;;;;;6153015;23;19908;-90
2023/09/22 04:50:09;;;;;;;;;;;;;;;;;;6154243;23;19935;-91
2023/09/22 04:52:38;;;;;;;;;;;;;;;;;;6154980;23;19983;-90
2023/09/22 04:55:04;;;;;;;;;;;;;;;;;;6154948;23;19912;-90
2023/09/22 04:57:30;;;;;;;;;;;;;;;;;;6181391;23;20345;-91
2023/09/22 04:59:56;;;;;;;;;;;;;;;;;;6155086;23;19916;-90
2023/09/22 05:02:22;;;;;;;;;;;;;;;;;;6153096;23;19912;-89
2023/09/22 05:04:48;;;;;;;;;;;;;;;;;;6155177;23;19905;-90
2023/09/22 05:07:14;;;;;;;;;;;;;;;;;;6180746;23;19916;-90
2023/09/22 05:09:40;;;;;;;;;;;;;;;;;;6154580;23;19908;-91
2023/09/22 05:12:09;;;;;;;;;;;;;;;;;;6153270;23;19908;-90
2023/09/22 05:14:35;;;;;;;;;;;;;;;;;;6152081;23;19915;-90
2023/09/22 05:17:02;;;;;;;;;;;;;;;;;;6152396;23;19986;-90
2023/09/22 05:19:29;;;;;;;;;;;;;;;;;;6152596;23;20338;-90
2023/09/22 05:21:55;;;;;;;;;;;;;;;;;;6152472;23;19935;-90
2023/09/22 05:24:21;;;;;;;;;;;;;;;;;;6152615;23;19904;-90
2023/09/22 05:26:47;;;;;;;;;;;;;;;;;;6152941;23;20649;-90
2023/09/22 05:29:13;;;;;;;;;;;;;;;;;;6154022;23;19947;-90
2023/09/22 05:31:45;;;;;;;;;;;;;;;;;;6156863;23;19924;-90
2023/09/22 05:34:11;;;;;;;;;;;;;;;;;;6154838;23;19909;-90
2023/09/22 05:36:37;;;;;;;;;;;;;;;;;;6155224;23;19909;-90
2023/09/22 05:39:10;;;;;;;;;;;;;;;;;;6156096;23;19904;-90
2023/09/22 05:41:36;;;;;;;;;;;;;;;;;;6155610;23;19908;-90
2023/09/22 05:44:02;;;;;;;;;;;;;;;;;;6156072;23;19922;-91
2023/09/22 05:46:31;;;;;;;;;;;;;;;;;;6181554;23;20369;-89
2023/09/22 05:49:05;;;;;;;;;;;;;;;;;;6156255;23;19940;-93
2023/09/22 05:51:32;;;;;;;;;;;;;;;;;;6154387;23;19904;-89
2023/09/22 05:53:57;;;;;;;;;;;;;;;;;;6155609;23;19908;-89
2023/09/22 05:56:25;;;;;;;;;;;;;;;;;;6180948;23;19904;-89
2023/09/22 05:58:51;;;;;;;;;;;;;;;;;;6153657;23;19908;-89
2023/09/22 06:01:17;;;;;;;;;;;;;;;;;;6151306;23;20176;-89
2023/09/22 06:03:43;;;;;;;;;;;;;;;;;;6153939;23;19919;-89
2023/09/22 06:06:09;;;;;;;;;;;;;;;;;;6180367;23;19915;-89
2023/09/22 06:08:36;;;;;;;;;;;;;;;;;;6153950;23;19986;-89
2023/09/22 06:11:02;;;;;;;;;;;;;;;;;;6153584;23;19911;-89
2023/09/22 06:13:27;;;;;;;;;;;;;;;;;;6180312;23;19908;-89
2023/09/22 06:15:55;;;;;;;;;;;;;;;;;;6152791;23;20280;-89
2023/09/22 06:18:21;;;;;;;;;;;;;;;;;;6155714;23;19987;-89
2023/09/22 06:20:47;;;;;;;;;;;;;;;;;;6181169;23;20718;-89
2023/09/22 06:23:13;;;;;;;;;;;;;;;;;;6155646;23;19912;-90
2023/09/22 06:25:39;;;;;;;;;;;;;;;;;;6154439;23;19909;-89
2023/09/22 06:28:05;;;;;;;;;;;;;;;;;;6181553;23;19904;-89
2023/09/22 06:30:34;;;;;;;;;;;;;;;;;;6156098;23;20216;-89
2023/09/22 06:33:00;;;;;;;;;;;;;;;;;;6156535;23;19932;-89
2023/09/22 06:35:26;;;;;;;;;;;;;;;;;;6154755;23;19916;-89
2023/09/22 06:37:53;;;;;;;;;;;;;;;;;;6155027;23;19909;-89
2023/09/22 06:40:19;;;;;;;;;;;;;;;;;;6155150;23;19904;-89
2023/09/22 06:42:45;;;;;;;;;;;;;;;;;;6152112;23;19912;-89
2023/09/22 06:45:11;;;;;;;;;;;;;;;;;;6181371;23;19955;-89
2023/09/22 06:47:37;;;;;;;;;;;;;;;;;;6154582;23;19908;-89
2023/09/22 06:50:06;;;;;;;;;;;;;;;;;;6181289;23;20525;-89
2023/09/22 06:52:32;;;;;;;;;;;;;;;;;;6154321;23;19905;-89
2023/09/22 06:55:00;;;;;;;;;;;;;;;;;;6155322;23;19911;-89
2023/09/22 06:57:26;;;;;;;;;;;;;;;;;;6155781;23;19966;-90
2023/09/22 06:59:52;;;;;;;;;;;;;;;;;;6156517;23;19974;-89
2023/09/22 07:02:18;;;;;;;;;;;;;;;;;;6181241;23;19912;-90
2023/09/22 07:04:44;;;;;;;;;;;;;;;;;;6156006;23;19918;-90
2023/09/22 07:07:11;;;;;;;;;;;;;;;;;;6156991;23;20031;-90
2023/09/22 07:09:37;;;;;;;;;;;;;;;;;;6156519;23;19912;-90
2023/09/22 07:12:03;;;;;;;;;;;;;;;;;;6155918;23;19956;-90
2023/09/22 07:14:29;;;;;;;;;;;;;;;;;;6154121;23;19908;-90
2023/09/22 07:16:55;;;;;;;;;;;;;;;;;;6155805;23;19911;-90
2023/09/22 07:19:31;;;;;;;;;;;;;;;;;;6156881;23;21290;-91
2023/09/22 07:21:57;;;;;;;;;;;;;;;;;;6156055;23;19908;-90
2023/09/22 07:24:23;;;;;;;;;;;;;;;;;;6156342;23;20333;-90
2023/09/22 07:26:50;;;;;;;;;;;;;;;;;;6155571;23;19952;-90
2023/09/22 07:29:17;;;;;;;;;;;;;;;;;;6155972;23;19927;-90
2023/09/22 07:31:43;;;;;;;;;;;;;;;;;;6156705;23;19990;-90
2023/09/22 07:34:10;;;;;;;;;;;;;;;;;;6155039;23;19904;-90
2023/09/22 07:36:36;;;;;;;;;;;;;;;;;;6154884;23;19904;-91
2023/09/22 07:39:11;;;;;;;;;;;;;;;;;;6155813;23;19928;-91
2023/09/22 07:41:37;;;;;;;;;;;;;;;;;;6155848;23;19988;-91
2023/09/22 07:44:04;;;;;;;;;;;;;;;;;;6180425;23;19958;-92
2023/09/22 07:46:29;;;;;;;;;;;;;;;;;;6156147;23;19904;-90
2023/09/22 07:48:55;;;;;;;;;;;;;;;;;;6154815;23;19987;-90
2023/09/22 07:51:22;;;;;;;;;;;;;;;;;;6155487;23;19908;-92
2023/09/22 07:53:48;;;;;;;;;;;;;;;;;;6155268;23;19904;-91
2023/09/22 07:56:16;;;;;;;;;;;;;;;;;;6155677;23;19930;-91
2023/09/22 07:58:42;;;;;;;;;;;;;;;;;;6182770;23;19904;-90
2023/09/22 08:01:24;;;;;;;;;;;;;;;;;;6153268;23;20011;-91
2023/09/22 08:03:51;;;;;;;;;;;;;;;;;;6181389;23;19967;-89
2023/09/22 08:06:17;;;;;;;;;;;;;;;;;;6155671;23;19915;-91
2023/09/22 08:08:43;;;;;;;;;;;;;;;;;;6153806;23;19908;-88
2023/09/22 08:11:09;;;;;;;;;;;;;;;;;;6152760;23;19908;-87
2023/09/22 08:13:35;;;;;;;;;;;;;;;;;;6179062;23;20000;-88
2023/09/22 08:16:06;;;;;;;;;;;;;;;;;;6152895;23;19904;-88
2023/09/22 08:18:37;;;;;;;;;;;;;;;;;;6178463;23;19930;-88
2023/09/22 08:21:03;;;;;;;;;;;;;;;;;;6153244;23;20540;-88
2023/09/22 08:23:32;;;;;;;;;;;;;;;;;;6153068;23;19940;-87
2023/09/22 08:25:58;;;;;;;;;;;;;;;;;;6152885;23;19915;-86
2023/09/22 08:28:26;;;;;;;;;;;;;;;;;;6151098;23;19916;-87
2023/09/22 08:30:52;;;;;;;;;;;;;;;;;;6152024;23;19974;-86
2023/09/22 08:33:24;;;;;;;;;;;;;;;;;;6158751;23;20354;-87
2023/09/22 08:35:51;;;;;;;;;;;;;;;;;;6152170;23;20024;-87
2023/09/22 08:38:17;;;;;;;;;;;;;;;;;;6153301;23;19971;-87
2023/09/22 08:40:43;;;;;;;;;;;;;;;;;;6153543;23;19908;-87
2023/09/22 08:43:15;;;;;;;;;;;;;;;;;;6153273;23;19908;-87
2023/09/22 08:45:41;;;;;;;;;;;;;;;;;;6152670;23;20357;-87
2023/09/22 08:48:07;;;;;;;;;;;;;;;;;;6151902;23;19975;-87
2023/09/22 08:50:33;;;;;;;;;;;;;;;;;;6178788;23;20220;-87
2023/09/22 08:53:03;;;;;;;;;;;;;;;;;;6153953;23;19983;-87
2023/09/22 08:55:29;;;;;;;;;;;;;;;;;;6152615;23;19920;-87
2023/09/22 08:57:55;;;;;;;;;;;;;;;;;;6153517;23;19999;-87
2023/09/22 09:00:21;;;;;;;;;;;;;;;;;;6152292;23;19936;-89
2023/09/22 09:02:47;;;;;;;;;;;;;;;;;;6152597;23;19908;-87
2023/09/22 09:05:13;;;;;;;;;;;;;;;;;;6178381;23;19935;-87
2023/09/22 09:07:38;;;;;;;;;;;;;;;;;;6154762;23;20302;-87
2023/09/22 09:10:05;;;;;;;;;;;;;;;;;;6156243;23;19932;-86
2023/09/22 09:12:33;;;;;;;;;;;;;;;;;;6152518;23;19962;-88
2023/09/22 09:15:00;;;;;;;;;;;;;;;;;;6151829;23;20486;-87
2023/09/22 09:17:25;;;;;;;;;;;;;;;;;;6152964;23;20341;-88
2023/09/22 09:19:51;;;;;;;;;;;;;;;;;;6156075;23;19905;-88
2023/09/22 09:22:17;;;;;;;;;;;;;;;;;;6155608;23;19915;-88
2023/09/22 09:24:44;;;;;;;;;;;;;;;;;;6155505;23;19963;-88
2023/09/22 09:27:10;;;;;;;;;;;;;;;;;;6156277;23;20251;-87
2023/09/22 09:29:37;;;;;;;;;;;;;;;;;;6156267;23;19904;-88
2023/09/22 09:32:03;;;;;;;;;;;;;;;;;;6154162;23;20327;-88
2023/09/22 09:34:29;;;;;;;;;;;;;;;;;;6157729;23;19916;-88
2023/09/22 09:36:55;;;;;;;;;;;;;;;;;;6155905;23;19911;-88
2023/09/22 09:39:21;;;;;;;;;;;;;;;;;;6155880;23;19908;-88
2023/09/22 09:41:47;;;;;;;;;;;;;;;;;;6156971;23;19912;-88
2023/09/22 09:44:13;;;;;;;;;;;;;;;;;;6182550;23;19913;-89
2023/09/22 09:46:39;;;;;;;;;;;;;;;;;;6155977;23;19947;-88
2023/09/22 09:49:05;;;;;;;;;;;;;;;;;;6154983;23;19908;-89
2023/09/22 09:51:31;;;;;;;;;;;;;;;;;;6155636;23;20326;-88
2023/09/22 09:54:00;;;;;;;;;;;;;;;;;;6155558;23;19915;-89
2023/09/22 09:56:26;;;;;;;;;;;;;;;;;;6155236;23;19908;-89
2023/09/22 09:58:52;;;;;;;;;;;;;;;;;;6155028;23;20400;-89
2023/09/22 10:01:19;;;;;;;;;;;;;;;;;;6182117;23;19909;-89
2023/09/22 10:03:47;;;;;;;;;;;;;;;;;;6156300;23;19931;-89
2023/09/22 10:06:13;;;;;;;;;;;;;;;;;;6155519;23;19958;-89
2023/09/22 10:08:40;;;;;;;;;;;;;;;;;;6156694;23;20763;-90
2023/09/22 10:11:06;;;;;;;;;;;;;;;;;;6154375;23;19908;-89
2023/09/22 10:13:32;;;;;;;;;;;;;;;;;;6154482;23;20262;-89
2023/09/22 10:15:58;;;;;;;;;;;;;;;;;;6154513;23;19915;-89
2023/09/22 10:18:24;;;;;;;;;;;;;;;;;;6154838;23;19976;-90
2023/09/22 10:20:53;;;;;;;;;;;;;;;;;;6154335;23;20322;-89
2023/09/22 10:23:19;;;;;;;;;;;;;;;;;;6154414;23;19912;-89
2023/09/22 10:25:45;;;;;;;;;;;;;;;;;;6155372;23;19962;-89
2023/09/22 10:28:12;;;;;;;;;;;;;;;;;;6155297;23;19970;-88
2023/09/22 10:30:38;;;;;;;;;;;;;;;;;;6154297;23;19962;-88
2023/09/22 10:33:04;;;;;;;;;;;;;;;;;;6156023;23;19923;-88
2023/09/22 10:35:30;;;;;;;;;;;;;;;;;;6154400;23;20437;-89
2023/09/22 10:37:56;;;;;;;;;;;;;;;;;;6153784;23;19908;-88
2023/09/22 10:40:22;;;;;;;;;;;;;;;;;;6154734;23;19952;-89
2023/09/22 10:42:50;;;;;;;;;;;;;;;;;;6180521;23;19896;-88
2023/09/22 10:45:18;;;;;;;;;;;;;;;;;;6154164;23;19912;-89
2023/09/22 10:47:44;;;;;;;;;;;;;;;;;;6179273;23;20231;-89
2023/09/22 10:50:10;;;;;;;;;;;;;;;;;;6153632;23;19911;-89
2023/09/22 10:52:42;;;;;;;;;;;;;;;;;;6180805;23;19912;-88
2023/09/22 10:55:07;;;;;;;;;;;;;;;;;;6153868;23;19954;-89
2023/09/22 10:57:39;;;;;;;;;;;;;;;;;;6153766;23;19995;-89
2023/09/22 11:00:05;;;;;;;;;;;;;;;;;;6154900;23;19975;-88
2023/09/22 11:02:33;;;;;;;;;;;;;;;;;;6179535;23;19919;-88
2023/09/22 11:05:05;;;;;;;;;;;;;;;;;;6181415;23;20254;-88
2023/09/22 11:07:31;;;;;;;;;;;;;;;;;;6152169;23;20329;-88
2023/09/22 11:09:57;;;;;;;;;;;;;;;;;;6154089;23;19954;-88
2023/09/22 11:12:23;;;;;;;;;;;;;;;;;;6152207;23;20230;-88
2023/09/22 11:14:49;;;;;;;;;;;;;;;;;;6152512;23;19915;-89
2023/09/22 11:17:15;;;;;;;;;;;;;;;;;;6152503;23;19908;-88
2023/09/22 11:19:41;;;;;;;;;;;;;;;;;;6152360;23;19908;-89
2023/09/22 11:22:07;;;;;;;;;;;;;;;;;;6151812;23;19968;-88
2023/09/22 11:24:33;;;;;;;;;;;;;;;;;;6152743;23;19934;-88
2023/09/22 11:26:59;;;;;;;;;;;;;;;;;;6153526;23;19983;-89
2023/09/22 11:29:26;;;;;;;;;;;;;;;;;;6178744;23;19908;-88
2023/09/22 11:31:53;;;;;;;;;;;;;;;;;;6178341;23;19916;-89
2023/09/22 11:34:20;;;;;;;;;;;;;;;;;;6156688;23;19916;-89
2023/09/22 11:36:46;;;;;;;;;;;;;;;;;;6152906;23;20242;-89
2023/09/22 11:39:18;;;;;;;;;;;;;;;;;;6153605;23;19948;-89
2023/09/22 11:41:44;;;;;;;;;;;;;;;;;;6152967;23;19931;-89
2023/09/22 11:44:09;;;;;;;;;;;;;;;;;;6179303;23;19912;-89
2023/09/22 11:46:36;;;;;;;;;;;;;;;;;;6153406;23;19928;-89
2023/09/22 11:49:02;;;;;;;;;;;;;;;;;;6151889;23;19912;-89
2023/09/22 11:51:28;;;;;;;;;;;;;;;;;;6152929;23;19912;-89
2023/09/22 11:53:54;;;;;;;;;;;;;;;;;;6151548;23;19904;-88
2023/09/22 11:56:20;;;;;;;;;;;;;;;;;;6178473;23;19904;-89
2023/09/22 11:58:46;;;;;;;;;;;;;;;;;;6152529;23;20373;-89
2023/09/22 12:01:12;;;;;;;;;;;;;;;;;;6152663;23;19911;-89
2023/09/22 12:03:38;;;;;;;;;;;;;;;;;;6151772;23;19916;-89
2023/09/22 12:06:04;;;;;;;;;;;;;;;;;;6152305;23;19987;-89
2023/09/22 12:08:31;;;;;;;;;;;;;;;;;;6179237;23;19931;-89
2023/09/22 12:10:57;;;;;;;;;;;;;;;;;;6151947;23;20249;-89
2023/09/22 12:13:23;;;;;;;;;;;;;;;;;;6151317;23;19988;-89
2023/09/22 12:15:49;;;;;;;;;;;;;;;;;;6152375;23;19908;-89
2023/09/22 12:18:15;;;;;;;;;;;;;;;;;;6152323;23;20301;-89
2023/09/22 12:20:41;;;;;;;;;;;;;;;;;;6152055;23;19986;-89
2023/09/22 12:23:07;;;;;;;;;;;;;;;;;;6179522;23;19908;-89
2023/09/22 12:25:33;;;;;;;;;;;;;;;;;;6152205;23;20283;-89
2023/09/22 12:27:59;;;;;;;;;;;;;;;;;;6152535;23;19915;-90
2023/09/22 12:30:25;;;;;;;;;;;;;;;;;;6152380;23;19904;-88
2023/09/22 12:32:51;;;;;;;;;;;;;;;;;;6179010;23;19924;-89
2023/09/22 12:35:17;;;;;;;;;;;;;;;;;;6155337;23;19955;-89
2023/09/22 12:37:43;;;;;;;;;;;;;;;;;;6152815;23;19915;-88
2023/09/22 12:40:09;;;;;;;;;;;;;;;;;;6152512;23;19904;-89
2023/09/22 12:42:36;;;;;;;;;;;;;;;;;;6152124;23;20326;-89
2023/09/22 12:45:02;;;;;;;;;;;;;;;;;;6153183;23;19908;-88
2023/09/22 12:47:29;;;;;;;;;;;;;;;;;;6152980;23;20401;-89
2023/09/22 12:49:55;;;;;;;;;;;;;;;;;;6151711;23;19908;-89
2023/09/22 12:52:21;;;;;;;;;;;;;;;;;;6151693;23;19908;-88
2023/09/22 12:54:47;;;;;;;;;;;;;;;;;;6153012;23;20310;-88
2023/09/22 12:57:13;;;;;;;;;;;;;;;;;;6152219;23;19908;-88
2023/09/22 12:59:39;;;;;;;;;;;;;;;;;;6179020;23;19915;-88
2023/09/22 13:02:05;;;;;;;;;;;;;;;;;;6152708;23;20243;-89
2023/09/22 13:04:33;;;;;;;;;;;;;;;;;;6153063;23;19912;-89
2023/09/22 13:06:59;;;;;;;;;;;;;;;;;;6153307;23;19954;-88
2023/09/22 13:09:25;;;;;;;;;;;;;;;;;;6152782;23;19912;-88
2023/09/22 13:11:51;;;;;;;;;;;;;;;;;;6153516;23;19916;-88
2023/09/22 13:14:17;;;;;;;;;;;;;;;;;;6151087;23;20341;-89
2023/09/22 13:16:43;;;;;;;;;;;;;;;;;;6152726;23;20031;-88
2023/09/22 13:19:09;;;;;;;;;;;;;;;;;;6151328;23;19908;-88
2023/09/22 13:21:35;;;;;;;;;;;;;;;;;;6152852;23;19904;-89
2023/09/22 13:24:01;;;;;;;;;;;;;;;;;;6152014;23;19912;-88
2023/09/22 13:26:27;;;;;;;;;;;;;;;;;;6153402;23;19974;-88
2023/09/22 13:28:56;;;;;;;;;;;;;;;;;;6151675;23;19904;-89
2023/09/22 13:31:22;;;;;;;;;;;;;;;;;;6151793;23;19904;-88
2023/09/22 13:33:48;;;;;;;;;;;;;;;;;;6151641;23;20262;-89
2023/09/22 13:36:14;;;;;;;;;;;;;;;;;;6151394;23;20358;-89
2023/09/22 13:38:40;;;;;;;;;;;;;;;;;;6152499;23;19908;-88
2023/09/22 13:41:06;;;;;;;;;;;;;;;;;;6152556;23;19908;-88
2023/09/22 13:43:32;;;;;;;;;;;;;;;;;;6149586;23;19912;-88
2023/09/22 13:45:58;;;;;;;;;;;;;;;;;;6179417;23;20211;-88
2023/09/22 13:48:24;;;;;;;;;;;;;;;;;;6152775;23;20318;-89
2023/09/22 13:50:50;;;;;;;;;;;;;;;;;;6152291;23;19904;-88
2023/09/22 13:53:16;;;;;;;;;;;;;;;;;;6153341;23;19915;-89
2023/09/22 13:55:42;;;;;;;;;;;;;;;;;;6153501;23;19908;-89
2023/09/22 13:58:09;;;;;;;;;;;;;;;;;;6154545;23;20002;-89
2023/09/22 14:00:35;;;;;;;;;;;;;;;;;;6153298;23;19909;-89
2023/09/22 14:03:02;;;;;;;;;;;;;;;;;;6179370;23;20023;-88
2023/09/22 14:05:28;;;;;;;;;;;;;;;;;;6153050;23;19919;-88
2023/09/22 14:07:54;;;;;;;;;;;;;;;;;;6153464;23;19904;-87
2023/09/22 14:10:20;;;;;;;;;;;;;;;;;;6154568;23;19910;-88
2023/09/22 14:12:46;;;;;;;;;;;;;;;;;;6153816;23;19915;-90
2023/09/22 14:15:12;;;;;;;;;;;;;;;;;;6153951;23;20015;-88
2023/09/22 14:17:38;;;;;;;;;;;;;;;;;;6153352;23;20599;-87
2023/09/22 14:20:04;;;;;;;;;;;;;;;;;;6154283;23;19908;-88
2023/09/22 14:22:30;;;;;;;;;;;;;;;;;;6154508;23;19908;-88
2023/09/22 14:24:57;;;;;;;;;;;;;;;;;;6153615;23;19962;-88
2023/09/22 14:27:23;;;;;;;;;;;;;;;;;;6180397;23;19911;-88
2023/09/22 14:29:49;;;;;;;;;;;;;;;;;;6149685;23;19912;-89
2023/09/22 14:32:15;;;;;;;;;;;;;;;;;;6179858;23;19935;-88
2023/09/22 14:34:41;;;;;;;;;;;;;;;;;;6157097;23;19920;-89
2023/09/22 14:37:07;;;;;;;;;;;;;;;;;;6179349;23;19955;-88
2023/09/22 14:39:33;;;;;;;;;;;;;;;;;;6152816;23;20561;-88
2023/09/22 14:41:59;;;;;;;;;;;;;;;;;;6153447;23;19931;-88
2023/09/22 14:44:28;;;;;;;;;;;;;;;;;;6153791;23;19962;-88
2023/09/22 14:46:54;;;;;;;;;;;;;;;;;;6154357;23;20323;-88
2023/09/22 14:49:21;;;;;;;;;;;;;;;;;;6154027;23;19915;-88
2023/09/22 14:51:47;;;;;;;;;;;;;;;;;;6153108;23;20345;-89
2023/09/22 14:54:13;;;;;;;;;;;;;;;;;;6153582;23;20264;-88
2023/09/22 14:56:39;;;;;;;;;;;;;;;;;;6153180;23;19904;-88
2023/09/22 14:59:05;;;;;;;;;;;;;;;;;;6153839;23;19979;-89
2023/09/22 15:01:31;;;;;;;;;;;;;;;;;;6153302;23;19904;-89
2023/09/22 15:03:57;;;;;;;;;;;;;;;;;;6153556;23;20609;-88
2023/09/22 15:06:23;;;;;;;;;;;;;;;;;;6153910;23;20271;-89
2023/09/22 15:08:49;;;;;;;;;;;;;;;;;;6156165;23;20046;-93
2023/09/22 15:11:15;;;;;;;;;;;;;;;;;;6165249;23;19904;-91
2023/09/22 15:13:41;;;;;;;;;;;;;;;;;;6171145;23;20341;-93
2023/09/22 15:16:07;;;;;;;;;;;;;;;;;;6174899;23;19919;-90
2023/09/22 15:18:33;;;;;;;;;;;;;;;;;;6160378;23;20152;-94
2023/09/22 15:20:59;;;;;;;;;;;;;;;;;;6158480;23;19990;-93
2023/09/22 15:23:25;;;;;;;;;;;;;;;;;;6182101;23;19915;-92
2023/09/22 15:25:52;;;;;;;;;;;;;;;;;;6158817;23;19909;-93
2023/09/22 15:28:18;;;;;;;;;;;;;;;;;;6157066;23;19958;-90
2023/09/22 15:30:44;;;;;;;;;;;;;;;;;;6157760;23;20287;-91
2023/09/22 15:33:10;;;;;;;;;;;;;;;;;;6159596;23;19934;-91
2023/09/22 15:35:36;;;;;;;;;;;;;;;;;;6165645;23;19917;-91
2023/09/22 15:38:06;;;;;;;;;;;;;;;;;;6163468;23;19946;-91
2023/09/22 15:40:32;;;;;;;;;;;;;;;;;;6164668;23;19908;-91
2023/09/22 15:42:58;;;;;;;;;;;;;;;;;;6162513;23;20214;-91
2023/09/22 15:45:24;;;;;;;;;;;;;;;;;;6163294;23;19904;-92
2023/09/22 15:47:50;;;;;;;;;;;;;;;;;;6161365;23;20342;-90
2023/09/22 15:50:16;;;;;;;;;;;;;;;;;;6156209;23;19939;-92
2023/09/22 15:52:42;;;;;;;;;;;;;;;;;;6158481;23;19947;-92
2023/09/22 15:55:09;;;;;;;;;;;;;;;;;;6184434;23;19913;-92
2023/09/22 15:57:36;;;;;;;;;;;;;;;;;;6159018;23;19908;-92
2023/09/22 16:00:05;;;;;;;;;;;;;;;;;;6155791;23;20330;-92
2023/09/22 16:02:31;;;;;;;;;;;;;;;;;;6155764;23;19958;-92
2023/09/22 16:04:57;;;;;;;;;;;;;;;;;;6155121;23;19904;-92
2023/09/22 16:07:23;;;;;;;;;;;;;;;;;;6180632;23;20009;-92
2023/09/22 16:09:50;;;;;;;;;;;;;;;;;;6155748;23;19908;-91
2023/09/22 16:12:17;;;;;;;;;;;;;;;;;;6157608;23;19951;-93
2023/09/22 16:14:43;;;;;;;;;;;;;;;;;;6156859;23;20346;-91
2023/09/22 16:17:09;;;;;;;;;;;;;;;;;;6156280;23;20334;-91
2023/09/22 16:19:35;;;;;;;;;;;;;;;;;;6162536;23;19923;-90
2023/09/22 16:22:01;;;;;;;;;;;;;;;;;;6201210;23;19904;-91
2023/09/22 16:24:27;;;;;;;;;;;;;;;;;;6175773;23;19915;-91
2023/09/22 16:26:52;;;;;;;;;;;;;;;;;;6172568;23;19904;-91
2023/09/22 16:29:20;;;;;;;;;;;;;;;;;;6157095;23;19915;-90
2023/09/22 16:31:46;;;;;;;;;;;;;;;;;;6155206;23;19908;-91
2023/09/22 16:34:12;;;;;;;;;;;;;;;;;;6157820;22;19919;-89
2023/09/22 16:36:38;;;;;;;;;;;;;;;;;;6153480;23;19916;-90
2023/09/22 16:39:05;;;;;;;;;;;;;;;;;;6163646;23;19892;-91
2023/09/22 16:41:31;;;;;;;;;;;;;;;;;;6159816;23;19932;-92